Dr.Michael Heilos
Wetterdaten: aktuell Donnerstag, 09.02.2023 04:10
Datum Zeit Temp. A. Feuchte A. Luftdruck Regen Wind Richtung Richtung Sonnenschein Solar Windchill Windben
09.02.2023 04:10 -3,6 C 58 % 1034,4 hPa 0,0 l/m 0,2 km/h (0 Bft) SO 136 0 min 0 W/m -3,6 C 1,6 km/h (1 Bft)
09.02.2023 04:00 -3,5 C 58 % 1034,5 hPa 0,0 l/m 1,3 km/h (1 Bft) SO 136 0 min 0 W/m -3,5 C 3,2 km/h (1 Bft)
09.02.2023 03:50 -3,4 C 58 % 1034,5 hPa 0,0 l/m 0,3 km/h (0 Bft) S-SO 157 0 min 0 W/m -3,4 C 3,2 km/h (1 Bft)
09.02.2023 03:40 -3,4 C 57 % 1034,7 hPa 0,0 l/m 0,1 km/h (0 Bft) S-SO 157 0 min 0 W/m -3,4 C 1,6 km/h (1 Bft)
09.02.2023 03:30 -3,2 C 57 % 1034,6 hPa 0,0 l/m 0,3 km/h (0 Bft) S-SO 157 0 min 0 W/m -3,2 C 3,2 km/h (1 Bft)
09.02.2023 03:20 -3,2 C 58 % 1034,7 hPa 0,0 l/m 0,5 km/h (0 Bft) SO 138 0 min 0 W/m -3,2 C 4,8 km/h (1 Bft)
09.02.2023 03:10 -3,2 C 58 % 1034,7 hPa 0,0 l/m 1,0 km/h (0 Bft) SO 140 0 min 0 W/m -3,2 C 4,8 km/h (1 Bft)
09.02.2023 03:00 -3,4 C 58 % 1034,8 hPa 0,0 l/m 0,2 km/h (0 Bft) S-SO 154 0 min 0 W/m -3,4 C 3,2 km/h (1 Bft)
09.02.2023 02:50 -3,4 C 58 % 1035,0 hPa 0,0 l/m 0,2 km/h (0 Bft) S-SO 150 0 min 0 W/m -3,4 C 1,6 km/h (1 Bft)
09.02.2023 02:40 -3,4 C 57 % 1035,1 hPa 0,0 l/m 0,1 km/h (0 Bft) S-SO 155 0 min 0 W/m -3,4 C 1,6 km/h (1 Bft)
09.02.2023 02:30 -3,2 C 56 % 1035,2 hPa 0,0 l/m 0,0 km/h (0 Bft) S-SO 150 0 min 0 W/m -3,2 C 0,0 km/h (0 Bft)
09.02.2023 02:20 -2,8 C 56 % 1035,2 hPa 0,0 l/m 0,0 km/h (0 Bft) S-SO 150 0 min 0 W/m -2,8 C 1,6 km/h (1 Bft)
09.02.2023 02:10 -2,6 C 56 % 1035,2 hPa 0,0 l/m 0,4 km/h (0 Bft) S-SO 154 0 min 0 W/m -2,6 C 3,2 km/h (1 Bft)
09.02.2023 02:00 -2,8 C 56 % 1035,3 hPa 0,0 l/m 0,3 km/h (0 Bft) S-SO 154 0 min 0 W/m -2,8 C 3,2 km/h (1 Bft)
09.02.2023 01:50 -2,8 C 56 % 1035,3 hPa 0,0 l/m 0,5 km/h (0 Bft) SO 137 0 min 0 W/m -2,8 C 3,2 km/h (1 Bft)
09.02.2023 01:40 -2,8 C 56 % 1035,4 hPa 0,0 l/m 0,2 km/h (0 Bft) S-SO 153 0 min 0 W/m -2,8 C 1,6 km/h (1 Bft)
09.02.2023 01:30 -2,7 C 56 % 1035,4 hPa 0,0 l/m 0,2 km/h (0 Bft) S-SO 163 0 min 0 W/m -2,7 C 3,2 km/h (1 Bft)
09.02.2023 01:20 -2,8 C 57 % 1035,5 hPa 0,0 l/m 0,4 km/h (0 Bft) S 169 0 min 0 W/m -2,8 C 3,2 km/h (1 Bft)
09.02.2023 01:10 -3,0 C 57 % 1035,6 hPa 0,0 l/m 0,6 km/h (0 Bft) S 169 0 min 0 W/m -3,0 C 6,4 km/h (2 Bft)
09.02.2023 01:00 -3,1 C 58 % 1035,7 hPa 0,0 l/m 0,4 km/h (0 Bft) SO 133 0 min 0 W/m -3,1 C 3,2 km/h (1 Bft)
09.02.2023 00:50 -3,3 C 58 % 1035,7 hPa 0,0 l/m 0,1 km/h (0 Bft) SO 130 0 min 0 W/m -3,3 C 3,2 km/h (1 Bft)
09.02.2023 00:40 -3,2 C 57 % 1035,7 hPa 0,0 l/m 0,1 km/h (0 Bft) SO 128 0 min 0 W/m -3,2 C 1,6 km/h (1 Bft)
09.02.2023 00:30 -3,1 C 57 % 1035,9 hPa 0,0 l/m 0,0 km/h (0 Bft) SO 128 0 min 0 W/m -3,1 C 1,6 km/h (1 Bft)
09.02.2023 00:20 -2,9 C 56 % 1035,8 hPa 0,0 l/m 0,2 km/h (0 Bft) SO 128 0 min 0 W/m -2,9 C 1,6 km/h (1 Bft)
09.02.2023 00:10 -2,7 C 55 % 1035,9 hPa 0,0 l/m 0,2 km/h (0 Bft) SO 128 0 min 0 W/m -2,7 C 1,6 km/h (1 Bft)
09.02.2023 00:00 -2,3 C 54 % 1035,9 hPa 0,0 l/m 0,7 km/h (0 Bft) SO 128 0 min 0 W/m -2,3 C 3,2 km/h (1 Bft)
08.02.2023 23:50 -2,1 C 54 % 1036,0 hPa 0,0 l/m 2,5 km/h (1 Bft) SO 128 0 min 0 W/m -2,1 C 6,4 km/h (2 Bft)
08.02.2023 23:40 -2,1 C 54 % 1036,0 hPa 0,0 l/m 2,7 km/h (1 Bft) SO 124 0 min 0 W/m -2,1 C 4,8 km/h (1 Bft)
08.02.2023 23:30 -2,1 C 54 % 1035,9 hPa 0,0 l/m 3,2 km/h (1 Bft) O-SO 123 0 min 0 W/m -2,1 C 4,8 km/h (1 Bft)
08.02.2023 23:20 -2,1 C 53 % 1035,9 hPa 0,0 l/m 1,2 km/h (1 Bft) S-SO 161 0 min 0 W/m -2,1 C 3,2 km/h (1 Bft)
08.02.2023 23:10 -1,9 C 52 % 1035,9 hPa 0,0 l/m 0,6 km/h (0 Bft) S-SO 161 0 min 0 W/m -1,9 C 1,6 km/h (1 Bft)
08.02.2023 23:00 -1,7 C 51 % 1036,0 hPa 0,0 l/m 0,4 km/h (0 Bft) S-SO 161 0 min 0 W/m -1,7 C 1,6 km/h (1 Bft)
08.02.2023 22:50 -1,3 C 50 % 1036,0 hPa 0,0 l/m 0,2 km/h (0 Bft) S-SO 161 0 min 0 W/m -1,3 C 1,6 km/h (1 Bft)
08.02.2023 22:40 -1,2 C 50 % 1036,2 hPa 0,0 l/m 0,9 km/h (0 Bft) S-SO 161 0 min 0 W/m -1,2 C 3,2 km/h (1 Bft)
08.02.2023 22:30 -1,1 C 49 % 1036,2 hPa 0,0 l/m 0,5 km/h (0 Bft) S-SO 161 0 min 0 W/m -1,1 C 3,2 km/h (1 Bft)
08.02.2023 22:20 -0,8 C 47 % 1036,2 hPa 0,0 l/m 0,5 km/h (0 Bft) S-SO 161 0 min 0 W/m -0,8 C 8,0 km/h (2 Bft)
08.02.2023 22:10 -0,6 C 46 % 1036,1 hPa 0,0 l/m 0,1 km/h (0 Bft) O-SO 120 0 min 0 W/m -0,6 C 1,6 km/h (1 Bft)
08.02.2023 22:00 -0,1 C 45 % 1036,0 hPa 0,0 l/m 0,2 km/h (0 Bft) O-SO 120 0 min 0 W/m -0,1 C 3,2 km/h (1 Bft)
08.02.2023 21:50 0,4 C 44 % 1036,1 hPa 0,0 l/m 1,1 km/h (1 Bft) O-SO 120 0 min 0 W/m 0,4 C 4,8 km/h (1 Bft)
08.02.2023 21:40 0,4 C 44 % 1036,0 hPa 0,0 l/m 1,6 km/h (1 Bft) S-SO 163 0 min 0 W/m 0,4 C 6,4 km/h (2 Bft)
08.02.2023 21:30 0,2 C 45 % 1035,9 hPa 0,0 l/m 1,6 km/h (1 Bft) S 186 0 min 0 W/m 0,2 C 9,7 km/h (2 Bft)
08.02.2023 21:20 -0,1 C 47 % 1035,9 hPa 0,0 l/m 2,0 km/h (1 Bft) S-SO 158 0 min 0 W/m -0,1 C 11,3 km/h (2 Bft)
08.02.2023 21:10 -1,1 C 51 % 1035,8 hPa 0,0 l/m 0,8 km/h (0 Bft) S-SO 149 0 min 0 W/m -1,1 C 8,0 km/h (2 Bft)
08.02.2023 21:00 -1,6 C 53 % 1035,9 hPa 0,0 l/m 0,8 km/h (0 Bft) NO 53 0 min 0 W/m -1,6 C 4,8 km/h (1 Bft)
08.02.2023 20:50 -1,4 C 52 % 1035,9 hPa 0,0 l/m 0,0 km/h (0 Bft) S 182 0 min 0 W/m -1,4 C 1,6 km/h (1 Bft)
08.02.2023 20:40 -1,2 C 51 % 1036,1 hPa 0,0 l/m 0,0 km/h (0 Bft) S 182 0 min 0 W/m -1,2 C 0,0 km/h (0 Bft)
08.02.2023 20:30 -0,9 C 50 % 1036,2 hPa 0,0 l/m 0,2 km/h (0 Bft) S 182 0 min 0 W/m -0,9 C 4,8 km/h (1 Bft)
08.02.2023 20:20 -0,6 C 49 % 1036,2 hPa 0,0 l/m 0,3 km/h (0 Bft) O 94 0 min 0 W/m -0,6 C 3,2 km/h (1 Bft)
08.02.2023 20:10 -0,4 C 48 % 1036,5 hPa 0,0 l/m 0,4 km/h (0 Bft) O 94 0 min 0 W/m -0,4 C 1,6 km/h (1 Bft)
08.02.2023 20:00 -0,2 C 47 % 1036,5 hPa 0,0 l/m 0,0 km/h (0 Bft) O 94 0 min 0 W/m -0,2 C 1,6 km/h (1 Bft)
08.02.2023 19:50 0,2 C 46 % 1036,7 hPa 0,0 l/m 0,5 km/h (0 Bft) O 94 0 min 0 W/m 0,2 C 3,2 km/h (1 Bft)
08.02.2023 19:40 0,2 C 45 % 1036,7 hPa 0,0 l/m 0,5 km/h (0 Bft) S-SO 159 0 min 0 W/m 0,2 C 4,8 km/h (1 Bft)
08.02.2023 19:30 0,3 C 45 % 1036,8 hPa 0,0 l/m 0,7 km/h (0 Bft) S-SO 148 0 min 0 W/m 0,3 C 4,8 km/h (1 Bft)
08.02.2023 19:20 0,4 C 44 % 1036,8 hPa 0,0 l/m 0,6 km/h (0 Bft) O-SO 111 0 min 0 W/m 0,4 C 4,8 km/h (1 Bft)
08.02.2023 19:10 0,7 C 43 % 1037,0 hPa 0,0 l/m 0,6 km/h (0 Bft) O 94 0 min 0 W/m 0,7 C 3,2 km/h (1 Bft)
08.02.2023 19:00 0,9 C 42 % 1037,1 hPa 0,0 l/m 1,5 km/h (1 Bft) O-SO 107 0 min 0 W/m 0,9 C 4,8 km/h (1 Bft)
08.02.2023 18:50 1,0 C 42 % 1037,3 hPa 0,0 l/m 0,8 km/h (0 Bft) O 95 0 min 0 W/m 1,0 C 4,8 km/h (1 Bft)
08.02.2023 18:40 1,1 C 42 % 1037,3 hPa 0,0 l/m 2,0 km/h (1 Bft) O-SO 113 0 min 0 W/m 1,1 C 6,4 km/h (2 Bft)
08.02.2023 18:30 0,9 C 42 % 1037,4 hPa 0,0 l/m 0,6 km/h (0 Bft) N-NO 21 0 min 0 W/m 0,9 C 3,2 km/h (1 Bft)
08.02.2023 18:20 1,2 C 41 % 1037,6 hPa 0,0 l/m 1,0 km/h (0 Bft) O-SO 115 0 min 0 W/m 1,2 C 4,8 km/h (1 Bft)
08.02.2023 18:10 1,3 C 41 % 1037,7 hPa 0,0 l/m 0,8 km/h (0 Bft) O 101 0 min 0 W/m 1,3 C 3,2 km/h (1 Bft)
08.02.2023 18:00 1,8 C 39 % 1037,5 hPa 0,0 l/m 0,6 km/h (0 Bft) O-SO 120 0 min 0 W/m 1,8 C 3,2 km/h (1 Bft)
08.02.2023 17:50 2,0 C 37 % 1037,7 hPa 0,0 l/m 0,9 km/h (0 Bft) O-SO 113 0 min 0 W/m 2,0 C 6,4 km/h (2 Bft)
08.02.2023 17:40 2,4 C 36 % 1037,8 hPa 0,0 l/m 0,3 km/h (0 Bft) O 100 0 min 0 W/m 2,4 C 3,2 km/h (1 Bft)
08.02.2023 17:30 2,9 C 34 % 1037,7 hPa 0,0 l/m 0,2 km/h (0 Bft) O 101 0 min 0 W/m 2,9 C 3,2 km/h (1 Bft)
08.02.2023 17:20 3,4 C 33 % 1037,6 hPa 0,0 l/m 1,6 km/h (1 Bft) O 101 0 min 7 W/m 3,4 C 4,8 km/h (1 Bft)
08.02.2023 17:10 3,7 C 32 % 1037,9 hPa 0,0 l/m 1,9 km/h (1 Bft) O-SO 118 0 min 12 W/m 3,7 C 4,8 km/h (1 Bft)
08.02.2023 17:00 4,1 C 32 % 1038,0 hPa 0,0 l/m 1,0 km/h (0 Bft) O 94 0 min 16 W/m 4,1 C 4,8 km/h (1 Bft)
08.02.2023 16:50 4,5 C 29 % 1038,0 hPa 0,0 l/m 2,1 km/h (1 Bft) SO 126 0 min 23 W/m 4,5 C 6,4 km/h (2 Bft)
08.02.2023 16:40 4,9 C 29 % 1038,1 hPa 0,0 l/m 3,4 km/h (1 Bft) O 93 0 min 28 W/m 4,9 C 9,7 km/h (2 Bft)
08.02.2023 16:30 5,1 C 27 % 1038,1 hPa 0,0 l/m 2,6 km/h (1 Bft) O-SO 122 0 min 33 W/m 5,1 C 11,3 km/h (2 Bft)
08.02.2023 16:20 5,4 C 25 % 1038,2 hPa 0,0 l/m 2,6 km/h (1 Bft) O-SO 119 0 min 39 W/m 5,4 C 11,3 km/h (2 Bft)
08.02.2023 16:10 5,6 C 27 % 1038,3 hPa 0,0 l/m 4,0 km/h (1 Bft) O-SO 108 0 min 65 W/m 5,6 C 12,9 km/h (3 Bft)
08.02.2023 16:00 5,7 C 27 % 1038,4 hPa 0,0 l/m 2,9 km/h (1 Bft) SO 125 0 min 76 W/m 5,7 C 9,7 km/h (2 Bft)
08.02.2023 15:50 5,9 C 27 % 1038,4 hPa 0,0 l/m 4,1 km/h (1 Bft) S-SO 153 0 min 81 W/m 5,9 C 12,9 km/h (3 Bft)
08.02.2023 15:40 6,2 C 30 % 1038,5 hPa 0,0 l/m 1,9 km/h (1 Bft) SO 127 0 min 86 W/m 6,2 C 9,7 km/h (2 Bft)
08.02.2023 15:30 6,4 C 29 % 1038,6 hPa 0,0 l/m 3,1 km/h (1 Bft) O-SO 104 0 min 84 W/m 6,4 C 11,3 km/h (2 Bft)
08.02.2023 15:20 6,4 C 29 % 1038,7 hPa 0,0 l/m 3,0 km/h (1 Bft) S-SW 202 10 min 221 W/m 6,4 C 12,9 km/h (3 Bft)
08.02.2023 15:10 6,6 C 29 % 1038,8 hPa 0,0 l/m 3,3 km/h (1 Bft) SO 135 10 min 234 W/m 6,6 C 12,9 km/h (3 Bft)
08.02.2023 15:00 6,7 C 28 % 1038,8 hPa 0,0 l/m 2,2 km/h (1 Bft) S-SW 195 10 min 281 W/m 6,7 C 9,7 km/h (2 Bft)
08.02.2023 14:50 6,6 C 28 % 1039,0 hPa 0,0 l/m 4,2 km/h (1 Bft) SO 140 10 min 306 W/m 6,6 C 16,1 km/h (3 Bft)
08.02.2023 14:40 6,7 C 28 % 1039,2 hPa 0,0 l/m 2,8 km/h (1 Bft) S-SO 161 10 min 323 W/m 6,7 C 8,0 km/h (2 Bft)
08.02.2023 14:30 6,8 C 27 % 1039,2 hPa 0,0 l/m 2,3 km/h (1 Bft) O-SO 109 10 min 339 W/m 6,8 C 9,7 km/h (2 Bft)
08.02.2023 14:20 6,7 C 27 % 1039,3 hPa 0,0 l/m 3,8 km/h (1 Bft) O-SO 110 10 min 355 W/m 6,7 C 12,9 km/h (3 Bft)
08.02.2023 14:10 6,4 C 26 % 1039,3 hPa 0,0 l/m 5,1 km/h (1 Bft) O-SO 121 10 min 369 W/m 6,4 C 11,3 km/h (2 Bft)
08.02.2023 14:00 6,4 C 25 % 1039,3 hPa 0,0 l/m 5,3 km/h (1 Bft) SO 143 10 min 380 W/m 6,4 C 14,5 km/h (3 Bft)
08.02.2023 13:50 6,3 C 25 % 1039,5 hPa 0,0 l/m 5,0 km/h (1 Bft) O 101 10 min 388 W/m 6,3 C 14,5 km/h (3 Bft)
08.02.2023 13:40 6,4 C 25 % 1039,7 hPa 0,0 l/m 4,0 km/h (1 Bft) SO 146 10 min 399 W/m 6,4 C 14,5 km/h (3 Bft)
08.02.2023 13:30 6,4 C 23 % 1039,9 hPa 0,0 l/m 3,7 km/h (1 Bft) O 93 10 min 408 W/m 6,4 C 9,7 km/h (2 Bft)
08.02.2023 13:20 6,2 C 32 % 1040,1 hPa 0,0 l/m 2,0 km/h (1 Bft) O-SO 104 10 min 411 W/m 6,2 C 9,7 km/h (2 Bft)
08.02.2023 13:10 6,1 C 29 % 1040,1 hPa 0,0 l/m 2,8 km/h (1 Bft) SO 128 10 min 417 W/m 6,1 C 9,7 km/h (2 Bft)
08.02.2023 13:00 5,8 C 28 % 1040,1 hPa 0,0 l/m 1,2 km/h (1 Bft) O-SO 104 10 min 417 W/m 5,8 C 6,4 km/h (2 Bft)
08.02.2023 12:50 5,7 C 28 % 1040,3 hPa 0,0 l/m 2,3 km/h (1 Bft) SO 139 10 min 418 W/m 5,7 C 8,0 km/h (2 Bft)
08.02.2023 12:40 5,4 C 31 % 1040,4 hPa 0,0 l/m 1,5 km/h (1 Bft) N-NO 20 10 min 417 W/m 5,4 C 6,4 km/h (2 Bft)
08.02.2023 12:30 5,1 C 29 % 1040,4 hPa 0,0 l/m 2,0 km/h (1 Bft) O-NO 61 10 min 417 W/m 5,1 C 6,4 km/h (2 Bft)
08.02.2023 12:20 4,7 C 30 % 1040,6 hPa 0,0 l/m 1,4 km/h (1 Bft) SO 141 10 min 415 W/m 4,7 C 6,4 km/h (2 Bft)
08.02.2023 12:10 3,8 C 34 % 1040,6 hPa 0,0 l/m 1,9 km/h (1 Bft) O 89 10 min 408 W/m 3,8 C 6,4 km/h (2 Bft)
08.02.2023 12:00 3,3 C 36 % 1040,7 hPa 0,0 l/m 1,6 km/h (1 Bft) O-NO 77 10 min 401 W/m 3,3 C 4,8 km/h (1 Bft)
08.02.2023 11:50 3,2 C 35 % 1040,8 hPa 0,0 l/m 2,3 km/h (1 Bft) O-SO 118 0 min 33 W/m 3,2 C 6,4 km/h (2 Bft)
08.02.2023 11:40 3,0 C 35 % 1040,8 hPa 0,0 l/m 3,2 km/h (1 Bft) S 191 0 min 30 W/m 3,0 C 8,0 km/h (2 Bft)
08.02.2023 11:30 2,8 C 36 % 1040,8 hPa 0,0 l/m 1,6 km/h (1 Bft) S-SO 147 0 min 30 W/m 2,8 C 8,0 km/h (2 Bft)
08.02.2023 11:20 2,7 C 37 % 1041,0 hPa 0,0 l/m 3,6 km/h (1 Bft) SO 127 0 min 30 W/m 2,7 C 12,9 km/h (3 Bft)
08.02.2023 11:10 2,4 C 39 % 1041,1 hPa 0,0 l/m 2,9 km/h (1 Bft) O-SO 107 0 min 30 W/m 2,4 C 8,0 km/h (2 Bft)
08.02.2023 11:00 2,3 C 40 % 1041,0 hPa 0,0 l/m 1,8 km/h (1 Bft) O-SO 114 0 min 28 W/m 2,3 C 6,4 km/h (2 Bft)
08.02.2023 10:50 2,5 C 40 % 1041,2 hPa 0,0 l/m 1,7 km/h (1 Bft) SO 132 0 min 28 W/m 2,5 C 6,4 km/h (2 Bft)
08.02.2023 10:40 2,9 C 39 % 1041,3 hPa 0,0 l/m 2,4 km/h (1 Bft) O-SO 115 0 min 28 W/m 2,9 C 9,7 km/h (2 Bft)
08.02.2023 10:30 2,9 C 43 % 1041,3 hPa 0,0 l/m 1,1 km/h (1 Bft) O-SO 123 10 min 302 W/m 2,9 C 4,8 km/h (1 Bft)
08.02.2023 10:20 2,4 C 46 % 1041,1 hPa 0,0 l/m 2,0 km/h (1 Bft) O-NO 78 10 min 285 W/m 2,4 C 4,8 km/h (1 Bft)
08.02.2023 10:10 1,1 C 50 % 1041,1 hPa 0,0 l/m 0,2 km/h (0 Bft) O-SO 115 10 min 246 W/m 1,1 C 1,6 km/h (1 Bft)
08.02.2023 10:00 0,4 C 50 % 1041,2 hPa 0,0 l/m 0,5 km/h (0 Bft) O-SO 115 10 min 192 W/m 0,4 C 4,8 km/h (1 Bft)
08.02.2023 09:50 -0,1 C 52 % 1041,2 hPa 0,0 l/m 1,9 km/h (1 Bft) S-SO 162 10 min 169 W/m -0,1 C 9,7 km/h (2 Bft)
08.02.2023 09:40 -0,6 C 52 % 1041,2 hPa 0,0 l/m 2,7 km/h (1 Bft) SO 134 0 min 144 W/m -0,6 C 8,0 km/h (2 Bft)
08.02.2023 09:30 -0,9 C 53 % 1041,5 hPa 0,0 l/m 3,7 km/h (1 Bft) SO 141 0 min 111 W/m -0,9 C 9,7 km/h (2 Bft)
08.02.2023 09:20 -1,3 C 55 % 1041,5 hPa 0,0 l/m 2,2 km/h (1 Bft) S 171 0 min 121 W/m -1,3 C 8,0 km/h (2 Bft)
08.02.2023 09:10 -2,0 C 56 % 1041,5 hPa 0,0 l/m 1,5 km/h (1 Bft) O-SO 122 0 min 113 W/m -2,0 C 6,4 km/h (2 Bft)
08.02.2023 09:00 -2,5 C 57 % 1041,5 hPa 0,0 l/m 3,0 km/h (1 Bft) SO 130 0 min 25 W/m -2,5 C 8,0 km/h (2 Bft)
08.02.2023 08:50 -2,7 C 57 % 1041,4 hPa 0,0 l/m 3,4 km/h (1 Bft) SO 127 0 min 19 W/m -2,7 C 12,9 km/h (3 Bft)
08.02.2023 08:40 -2,8 C 57 % 1041,4 hPa 0,0 l/m 3,0 km/h (1 Bft) O-SO 110 0 min 19 W/m -2,8 C 9,7 km/h (2 Bft)
08.02.2023 08:30 -2,9 C 58 % 1041,5 hPa 0,0 l/m 2,0 km/h (1 Bft) O-SO 118 0 min 18 W/m -2,9 C 6,4 km/h (2 Bft)
08.02.2023 08:20 -2,9 C 58 % 1041,7 hPa 0,0 l/m 2,5 km/h (1 Bft) S 176 0 min 14 W/m -2,9 C 9,7 km/h (2 Bft)
08.02.2023 08:10 -2,8 C 57 % 1041,7 hPa 0,0 l/m 3,7 km/h (1 Bft) O-SO 120 0 min 12 W/m -2,8 C 9,7 km/h (2 Bft)
08.02.2023 08:00 -2,7 C 57 % 1041,7 hPa 0,0 l/m 5,9 km/h (2 Bft) SO 140 0 min 7 W/m -2,7 C 12,9 km/h (3 Bft)
08.02.2023 07:50 -2,9 C 57 % 1041,7 hPa 0,0 l/m 5,6 km/h (1 Bft) O-SO 115 0 min 5 W/m -2,9 C 12,9 km/h (3 Bft)
08.02.2023 07:40 -2,9 C 57 % 1041,7 hPa 0,0 l/m 3,6 km/h (1 Bft) SO 128 0 min 0 W/m -2,9 C 9,7 km/h (2 Bft)
08.02.2023 07:30 -2,9 C 57 % 1041,7 hPa 0,0 l/m 5,4 km/h (1 Bft) O-SO 112 0 min 0 W/m -2,9 C 11,3 km/h (2 Bft)
08.02.2023 07:20 -2,9 C 57 % 1041,7 hPa 0,0 l/m 4,5 km/h (1 Bft) SO 128 0 min 0 W/m -2,9 C 11,3 km/h (2 Bft)
08.02.2023 07:10 -3,0 C 57 % 1041,5 hPa 0,0 l/m 5,4 km/h (1 Bft) O 94 0 min 0 W/m -3,0 C 12,9 km/h (3 Bft)
08.02.2023 07:00 -2,8 C 57 % 1041,6 hPa 0,0 l/m 4,7 km/h (1 Bft) O 94 0 min 0 W/m -2,8 C 9,7 km/h (2 Bft)
08.02.2023 06:50 -2,8 C 57 % 1041,7 hPa 0,0 l/m 5,3 km/h (1 Bft) O-SO 104 0 min 0 W/m -2,8 C 11,3 km/h (2 Bft)
08.02.2023 06:40 -2,8 C 57 % 1041,5 hPa 0,0 l/m 4,7 km/h (1 Bft) O-SO 105 0 min 0 W/m -2,8 C 9,7 km/h (2 Bft)
08.02.2023 06:30 -2,9 C 58 % 1041,5 hPa 0,0 l/m 5,6 km/h (1 Bft) SO 136 0 min 0 W/m -2,9 C 11,3 km/h (2 Bft)
08.02.2023 06:20 -3,1 C 58 % 1041,3 hPa 0,0 l/m 4,9 km/h (1 Bft) O-SO 117 0 min 0 W/m -3,1 C 9,7 km/h (2 Bft)
08.02.2023 06:10 -3,0 C 58 % 1041,3 hPa 0,0 l/m 8,6 km/h (2 Bft) O 84 0 min 0 W/m -5,4 C 14,5 km/h (3 Bft)
08.02.2023 06:00 -2,9 C 58 % 1041,3 hPa 0,0 l/m 8,3 km/h (2 Bft) O-SO 103 0 min 0 W/m -5,0 C 14,5 km/h (3 Bft)
08.02.2023 05:50 -2,9 C 58 % 1041,2 hPa 0,0 l/m 5,1 km/h (1 Bft) O-SO 121 0 min 0 W/m -2,9 C 11,3 km/h (2 Bft)
08.02.2023 05:40 -2,8 C 58 % 1041,2 hPa 0,0 l/m 5,8 km/h (2 Bft) O-SO 121 0 min 0 W/m -2,8 C 11,3 km/h (2 Bft)
08.02.2023 05:30 -2,9 C 58 % 1041,2 hPa 0,0 l/m 6,3 km/h (2 Bft) O-SO 117 0 min 0 W/m -2,9 C 11,3 km/h (2 Bft)
08.02.2023 05:20 -2,9 C 58 % 1041,2 hPa 0,0 l/m 4,1 km/h (1 Bft) O-SO 116 0 min 0 W/m -2,9 C 11,3 km/h (2 Bft)
08.02.2023 05:10 -3,0 C 59 % 1041,2 hPa 0,0 l/m 4,6 km/h (1 Bft) O-SO 117 0 min 0 W/m -3,0 C 11,3 km/h (2 Bft)
08.02.2023 05:00 -3,8 C 61 % 1041,2 hPa 0,0 l/m 2,2 km/h (1 Bft) O-SO 113 0 min 0 W/m -3,8 C 8,0 km/h (2 Bft)
_ Min-Zeit 05:00 13:30 04:10 - 20:00 - - - - 06:10 20:40
Minimum _ -3,8 C 23 % 1034,4 hPa - 0,0 km/h (0 Bft) - - - - -5,4 C 0,0 km/h (0 Bft)
_ Max-Zeit 14:40 05:00 06:50 05:00 06:10 - - 09:50 12:50 14:30 14:50
Maximum _ 6,9 C 61 % 1041,7 hPa 0,0 l/m 8,6 km/h
O (2 Bft)
- - 10 min 418 W/m 6,8 C 16,1 km/h
S (3 Bft)
Durchschnitt _ 0,1 C 47 % 1038,6 hPa #0,0 l/m 2,1 km/h (1 Bft) O-SO - #0 min. 0 W/m 0,0 C 6,9 km/h (2 Bft)